createdAt,value
2022-08-22T00:00:16.268Z,180
2022-08-22T00:03:04.188Z,180
2022-08-22T00:05:16.312Z,180
2022-08-22T00:10:25.539Z,180
2022-08-22T00:15:41.969Z,180
2022-08-22T00:20:16.194Z,180
2022-08-22T00:25:25.739Z,180
2022-08-22T00:30:16.342Z,180
2022-08-22T00:35:16.308Z,180
2022-08-22T00:40:16.376Z,180
2022-08-22T00:45:16.238Z,180
2022-08-22T00:50:16.207Z,180
2022-08-22T00:55:16.425Z,180
2022-08-22T01:00:16.306Z,180
2022-08-22T01:05:16.265Z,180
2022-08-22T01:10:16.417Z,180
2022-08-22T01:15:16.353Z,180
2022-08-22T01:20:16.404Z,180
2022-08-22T01:25:16.325Z,180
2022-08-22T01:30:16.251Z,180
2022-08-22T01:35:16.611Z,180
2022-08-22T01:40:16.482Z,180
2022-08-22T01:45:16.407Z,180
2022-08-22T01:50:16.325Z,180
2022-08-22T01:55:16.463Z,180
2022-08-22T02:00:16.426Z,180
2022-08-22T02:05:16.686Z,180
2022-08-22T02:10:16.392Z,180
2022-08-22T02:15:16.521Z,180
2022-08-22T02:20:16.505Z,180
2022-08-22T02:25:16.491Z,180
2022-08-22T02:30:16.474Z,180
2022-08-22T02:35:16.665Z,180
2022-08-22T02:40:16.635Z,180
2022-08-22T02:45:16.566Z,180
2022-08-22T02:50:16.610Z,180
2022-08-22T02:55:16.584Z,180
2022-08-22T03:00:30.737Z,180
2022-08-22T03:05:16.545Z,180
2022-08-22T03:10:16.553Z,180
2022-08-22T03:15:16.605Z,180
2022-08-22T03:20:16.753Z,180
2022-08-22T03:25:16.668Z,202
2022-08-22T03:30:16.634Z,180
2022-08-22T03:35:16.628Z,180
2022-08-22T03:40:16.678Z,180
2022-08-22T03:45:16.710Z,180
2022-08-22T03:50:16.652Z,180
2022-08-22T03:55:16.810Z,180
2022-08-22T04:00:15.687Z,180
2022-08-22T04:05:16.268Z,180
2022-08-22T04:10:15.677Z,180
2022-08-22T04:15:15.711Z,180
2022-08-22T04:20:16.812Z,180
2022-08-22T04:25:15.781Z,180
2022-08-22T04:30:15.688Z,180
2022-08-22T04:35:15.717Z,180
2022-08-22T04:40:15.971Z,180
2022-08-22T04:45:15.818Z,180
2022-08-22T04:50:15.785Z,180
2022-08-22T04:55:15.749Z,180
2022-08-22T05:00:15.810Z,135
2022-08-22T05:05:15.770Z,135
2022-08-22T05:10:15.804Z,135
2022-08-22T05:15:15.914Z,158
2022-08-22T05:20:15.806Z,180
2022-08-22T05:25:15.811Z,180
2022-08-22T05:30:15.841Z,180
2022-08-22T05:35:15.905Z,180
2022-08-22T05:40:15.945Z,180
2022-08-22T05:45:16.125Z,180
2022-08-22T05:50:16.042Z,158
2022-08-22T05:55:15.902Z,135
2022-08-22T06:00:15.945Z,135
2022-08-22T06:05:15.968Z,158
2022-08-22T06:10:16.030Z,180
2022-08-22T06:15:15.990Z,180
2022-08-22T06:20:15.950Z,180
2022-08-22T06:25:16.269Z,180
2022-08-22T06:30:15.992Z,158
2022-08-22T06:35:16.001Z,158
2022-08-22T06:40:16.310Z,158
2022-08-22T06:45:16.007Z,180
2022-08-22T06:50:16.052Z,180
2022-08-22T06:55:16.102Z,180
2022-08-22T07:00:16.036Z,180
2022-08-22T07:05:16.073Z,158
2022-08-22T07:10:16.137Z,158
2022-08-22T07:15:16.110Z,158
2022-08-22T07:20:16.153Z,158
2022-08-22T07:25:16.228Z,158
2022-08-22T07:30:16.116Z,135
2022-08-22T07:35:16.102Z,158
2022-08-22T07:40:16.193Z,158
2022-08-22T07:45:16.250Z,135
2022-08-22T07:50:16.169Z,135
2022-08-22T07:55:16.230Z,135
2022-08-22T08:00:16.211Z,158
2022-08-22T08:05:16.446Z,180
2022-08-22T08:10:16.235Z,180
2022-08-22T08:15:16.184Z,158
2022-08-22T08:20:16.237Z,158
2022-08-22T08:25:16.256Z,135
2022-08-22T08:30:16.244Z,135
2022-08-22T08:35:16.240Z,135
2022-08-22T08:40:16.629Z,158
2022-08-22T08:45:16.274Z,135
2022-08-22T08:50:16.326Z,158
2022-08-22T08:55:22.463Z,158
2022-08-22T09:00:16.316Z,180
2022-08-22T09:05:16.339Z,180
2022-08-22T09:10:16.406Z,135
2022-08-22T09:15:16.485Z,158
2022-08-22T09:20:19.371Z,180
2022-08-22T09:25:16.408Z,180
2022-08-22T09:30:16.443Z,180
2022-08-22T09:35:16.340Z,158
2022-08-22T09:40:18.878Z,135
2022-08-22T09:45:16.428Z,180
2022-08-22T09:50:17.117Z,180
2022-08-22T09:55:16.959Z,202
2022-08-22T10:00:16.495Z,202
2022-08-22T10:05:40.761Z,202
2022-08-22T10:10:16.472Z,180
2022-08-22T10:15:16.710Z,180
2022-08-22T10:20:16.577Z,158
2022-08-22T10:25:16.506Z,180
2022-08-22T10:30:16.597Z,180
2022-08-22T10:35:16.485Z,202
2022-08-22T10:40:16.832Z,202
2022-08-22T10:45:16.585Z,202
2022-08-22T10:50:16.594Z,202
2022-08-22T10:55:16.605Z,202
2022-08-22T11:00:16.866Z,158
2022-08-22T11:05:16.559Z,158
2022-08-22T11:10:16.629Z,158
2022-08-22T11:15:16.618Z,135
2022-08-22T11:20:16.687Z,90
2022-08-22T11:25:29.248Z,112
2022-08-22T11:30:18.769Z,135
2022-08-22T11:35:16.667Z,135
2022-08-22T11:40:16.959Z,112
2022-08-22T11:45:16.726Z,135
2022-08-22T11:50:16.697Z,112
2022-08-22T11:55:16.851Z,112
2022-08-22T12:00:16.771Z,180
2022-08-22T12:05:21.565Z,135
2022-08-22T12:10:16.878Z,135
2022-08-22T12:15:16.740Z,112
2022-08-22T12:20:17.472Z,158
2022-08-22T12:25:16.843Z,112
2022-08-22T12:30:17.087Z,112
2022-08-22T12:35:16.833Z,112
2022-08-22T12:40:16.832Z,135
2022-08-22T12:45:16.913Z,135
2022-08-22T12:50:16.785Z,202
2022-08-22T12:55:16.762Z,135
2022-08-22T13:00:16.876Z,135
2022-08-22T13:05:19.897Z,135
2022-08-22T13:10:17.513Z,135
2022-08-22T13:15:16.958Z,158
2022-08-22T13:20:16.912Z,135
2022-08-22T13:25:25.481Z,112
2022-08-22T13:30:16.863Z,135
2022-08-22T13:35:17.196Z,135
2022-08-22T13:40:17.060Z,112
2022-08-22T13:45:16.969Z,135
2022-08-22T13:50:17.094Z,112
2022-08-22T13:55:17.004Z,112
2022-08-22T14:00:28.447Z,135
2022-08-22T14:05:16.999Z,135
2022-08-22T14:10:17.080Z,135
2022-08-22T14:15:17.207Z,158
2022-08-22T14:20:32.680Z,180
2022-08-22T14:25:17.118Z,135
2022-08-22T14:30:17.240Z,158
2022-08-22T14:35:23.522Z,135
2022-08-22T14:40:17.318Z,135
2022-08-22T14:45:17.273Z,135
2022-08-22T14:50:17.122Z,135
2022-08-22T14:55:17.096Z,135
2022-08-22T15:00:17.063Z,135
2022-08-22T15:05:17.158Z,135
2022-08-22T15:10:17.234Z,135
2022-08-22T15:15:17.131Z,135
2022-08-22T15:20:22.848Z,135
2022-08-22T15:25:17.281Z,112
2022-08-22T15:30:20.498Z,112
2022-08-22T15:35:17.805Z,112
2022-08-22T15:40:17.373Z,112
2022-08-22T15:45:17.145Z,112
2022-08-22T15:50:17.253Z,112
2022-08-22T15:55:17.246Z,90
2022-08-22T16:00:17.433Z,112
2022-08-22T16:05:17.327Z,112
2022-08-22T16:10:17.262Z,112
2022-08-22T16:15:17.262Z,112
2022-08-22T16:20:19.898Z,112
2022-08-22T16:25:17.330Z,112
2022-08-22T16:30:17.354Z,112
2022-08-22T16:35:17.346Z,112
2022-08-22T16:40:15.616Z,112
2022-08-22T16:45:17.431Z,112
2022-08-22T16:50:17.416Z,90
2022-08-22T16:55:17.382Z,90
2022-08-22T17:00:22.313Z,112
2022-08-22T17:05:15.604Z,112
2022-08-22T17:10:15.514Z,112
2022-08-22T17:15:15.400Z,112
2022-08-22T17:20:15.490Z,112
2022-08-22T17:25:15.559Z,112
2022-08-22T17:30:15.549Z,112
2022-08-22T17:35:15.463Z,90
2022-08-22T17:40:15.587Z,90
2022-08-22T17:45:15.618Z,90
2022-08-22T17:50:15.510Z,90
2022-08-22T17:55:15.493Z,112
2022-08-22T18:00:15.466Z,112
2022-08-22T18:05:15.517Z,112
2022-08-22T18:10:15.618Z,90
2022-08-22T18:15:15.539Z,90
2022-08-22T18:20:15.725Z,90
2022-08-22T18:25:15.734Z,90
2022-08-22T18:30:15.593Z,68
2022-08-22T18:35:15.725Z,45
2022-08-22T18:40:15.657Z,90
2022-08-22T18:45:15.558Z,45
2022-08-22T18:50:15.591Z,68
2022-08-22T18:55:15.616Z,68
2022-08-22T19:00:16.493Z,45
2022-08-22T19:05:15.606Z,22
2022-08-22T19:10:15.849Z,22
2022-08-22T19:15:15.663Z,68
2022-08-22T19:20:15.761Z,45
2022-08-22T19:25:15.693Z,45
2022-08-22T19:30:15.677Z,68
2022-08-22T19:35:15.738Z,90
2022-08-22T19:40:15.859Z,68
2022-08-22T19:45:15.752Z,90
2022-08-22T19:50:15.720Z,68
2022-08-22T19:55:15.776Z,90
2022-08-22T20:00:15.975Z,90
2022-08-22T20:05:15.871Z,90
2022-08-22T20:10:15.823Z,112
2022-08-22T20:15:16.313Z,112
2022-08-22T20:20:17.259Z,90
2022-08-22T20:25:41.772Z,90
2022-08-22T20:30:15.982Z,90
2022-08-22T20:35:17.014Z,90
2022-08-22T20:40:38.054Z,90
2022-08-22T20:45:16.038Z,90
2022-08-22T20:50:16.204Z,90
2022-08-22T20:55:16.099Z,90
2022-08-22T21:00:15.970Z,90
2022-08-22T21:05:15.899Z,135
2022-08-22T21:10:20.170Z,90
2022-08-22T21:15:16.003Z,68
2022-08-22T21:20:15.931Z,90
2022-08-22T21:25:16.023Z,90
2022-08-22T21:30:16.009Z,90
2022-08-22T21:35:15.964Z,68
2022-08-22T21:40:16.118Z,90
2022-08-22T21:45:16.057Z,90
2022-08-22T21:50:16.113Z,90
2022-08-22T21:55:15.919Z,90
2022-08-22T22:00:16.059Z,68
2022-08-22T22:05:16.028Z,90
2022-08-22T22:10:16.086Z,112
2022-08-22T22:15:16.048Z,112
2022-08-22T22:20:16.146Z,112
2022-08-22T22:25:38.909Z,338
2022-08-22T22:30:16.081Z,315
2022-08-22T22:35:16.267Z,0
2022-08-22T22:40:16.120Z,0
2022-08-22T22:45:16.121Z,0
2022-08-22T22:50:16.277Z,22
2022-08-22T22:55:24.970Z,68
2022-08-22T23:00:16.104Z,90
2022-08-22T23:05:16.149Z,112
2022-08-22T23:10:21.373Z,112
2022-08-22T23:15:16.256Z,22
2022-08-22T23:20:16.195Z,0
2022-08-22T23:25:16.174Z,315
2022-08-22T23:30:16.843Z,315
2022-08-22T23:35:16.379Z,315
2022-08-22T23:40:16.202Z,68
2022-08-22T23:45:16.336Z,68
2022-08-22T23:50:16.335Z,45
2022-08-22T23:55:16.438Z,90
